createdAt,value
2023-03-28T00:01:11.835Z,51.53
2023-03-28T00:03:40.540Z,51.39
2023-03-28T00:06:16.282Z,51.76
2023-03-28T00:08:45.944Z,51.64
2023-03-28T00:11:19.651Z,51.75
2023-03-28T00:13:58.020Z,51.75
2023-03-28T00:16:33.931Z,51.93
2023-03-28T00:19:06.059Z,51.18
2023-03-28T00:21:37.350Z,51.47
2023-03-28T00:24:10.730Z,51.79
2023-03-28T00:26:38.300Z,51.73
2023-03-28T00:29:09.073Z,51.58
2023-03-28T00:31:39.290Z,51.39
2023-03-28T00:34:07.777Z,52.11
2023-03-28T00:36:35.397Z,51.87
2023-03-28T00:39:06.454Z,51.23
2023-03-28T00:41:42.636Z,51.53
2023-03-28T00:44:48.959Z,52.19
2023-03-28T00:47:45.982Z,51.82
2023-03-28T00:50:38.095Z,52.29
2023-03-28T00:53:21.567Z,51.89
2023-03-28T00:55:55.250Z,51.31
2023-03-28T00:58:27.656Z,51.40
2023-03-28T01:00:57.426Z,51.70
2023-03-28T01:03:33.871Z,51.88
2023-03-28T01:06:04.499Z,51.96
2023-03-28T01:08:44.864Z,52.44
2023-03-28T01:11:14.514Z,52.26
2023-03-28T01:13:50.691Z,52.16
2023-03-28T01:16:22.010Z,52.86
2023-03-28T01:18:52.002Z,53.03
2023-03-28T01:22:06.835Z,53.15
2023-03-28T01:25:34.552Z,52.49
2023-03-28T01:28:26.689Z,52.66
2023-03-28T01:31:35.317Z,53.46
2023-03-28T01:34:42.668Z,52.85
2023-03-28T01:37:32.712Z,52.91
2023-03-28T01:40:39.487Z,53.07
2023-03-28T01:43:42.864Z,52.94
2023-03-28T01:46:38.169Z,52.67
2023-03-28T01:49:28.676Z,53.08
2023-03-28T01:52:04.945Z,52.56
2023-03-28T01:55:14.892Z,53.45
2023-03-28T01:58:14.885Z,53.00
2023-03-28T02:00:55.886Z,53.35
2023-03-28T02:03:31.813Z,52.47
2023-03-28T02:06:08.282Z,52.55
2023-03-28T02:08:41.057Z,52.61
2023-03-28T02:11:33.600Z,52.44
2023-03-28T02:14:19.519Z,52.69
2023-03-28T02:17:28.955Z,52.02
2023-03-28T02:20:31.731Z,52.19
2023-03-28T02:23:31.396Z,52.38
2023-03-28T02:26:18.379Z,52.02
2023-03-28T02:28:59.581Z,52.18
2023-03-28T02:31:46.496Z,52.02
2023-03-28T02:34:14.332Z,51.76
2023-03-28T02:37:14.068Z,52.53
2023-03-28T02:40:13.762Z,52.59
2023-03-28T02:43:10.764Z,52.00
2023-03-28T02:46:01.061Z,51.96
2023-03-28T02:49:19.396Z,51.34
2023-03-28T02:52:15.923Z,51.67
2023-03-28T02:55:18.291Z,51.86
2023-03-28T02:58:14.150Z,51.96
2023-03-28T03:00:42.877Z,52.09
2023-03-28T03:03:11.308Z,51.96
2023-03-28T03:05:38.905Z,52.15
2023-03-28T03:08:07.394Z,52.29
2023-03-28T03:10:36.463Z,52.01
2023-03-28T03:13:04.055Z,51.81
2023-03-28T03:15:35.441Z,51.76
2023-03-28T03:18:20.496Z,51.46
2023-03-28T03:20:50.128Z,51.91
2023-03-28T03:23:18.318Z,52.18
2023-03-28T03:25:45.861Z,51.27
2023-03-28T03:28:27.088Z,51.25
2023-03-28T03:30:55.476Z,52.09
2023-03-28T03:33:32.671Z,51.52
2023-03-28T03:36:05.925Z,51.87
2023-03-28T03:38:34.708Z,51.40
2023-03-28T03:41:02.975Z,51.48
2023-03-28T03:43:30.921Z,52.04
2023-03-28T03:46:00.329Z,51.59
2023-03-28T03:48:28.666Z,51.39
2023-03-28T03:51:00.956Z,51.50
2023-03-28T03:53:29.132Z,51.26
2023-03-28T03:56:06.286Z,51.55
2023-03-28T03:58:57.956Z,51.16
2023-03-28T04:01:30.678Z,51.56
2023-03-28T04:04:18.501Z,50.82
2023-03-28T04:07:07.622Z,51.58
2023-03-28T04:09:36.265Z,51.08
2023-03-28T04:12:07.654Z,51.23
2023-03-28T04:14:45.781Z,50.86
2023-03-28T04:17:35.125Z,51.11
2023-03-28T04:20:11.593Z,51.08
2023-03-28T04:22:54.647Z,51.12
2023-03-28T04:25:24.717Z,51.66
2023-03-28T04:27:54.606Z,51.54
2023-03-28T04:30:24.400Z,51.36
2023-03-28T04:33:25.089Z,51.02
2023-03-28T04:36:00.414Z,50.76
2023-03-28T04:38:32.567Z,51.70
2023-03-28T04:41:16.682Z,51.23
2023-03-28T04:44:19.254Z,50.60
2023-03-28T04:46:56.383Z,51.26
2023-03-28T04:49:24.725Z,50.57
2023-03-28T04:51:52.716Z,51.34
2023-03-28T04:54:20.634Z,51.15
2023-03-28T04:56:48.338Z,51.60
2023-03-28T04:59:21.607Z,51.23
2023-03-28T05:01:49.538Z,50.90
2023-03-28T05:04:35.837Z,51.16
2023-03-28T05:07:06.038Z,51.24
2023-03-28T05:09:34.710Z,51.14
2023-03-28T05:12:02.414Z,51.17
2023-03-28T05:14:31.990Z,50.58
2023-03-28T05:17:11.787Z,50.78
2023-03-28T05:19:57.897Z,51.42
2023-03-28T05:22:28.149Z,50.32
2023-03-28T05:24:59.830Z,50.86
2023-03-28T05:27:27.480Z,50.81
2023-03-28T05:29:55.976Z,50.92
2023-03-28T05:32:24.568Z,50.93
2023-03-28T05:34:53.554Z,50.88
2023-03-28T05:37:22.315Z,51.10
2023-03-28T05:39:51.715Z,51.26
2023-03-28T05:42:19.956Z,50.94
2023-03-28T05:44:47.659Z,50.86
2023-03-28T05:47:34.413Z,50.27
2023-03-28T05:50:02.913Z,50.90
2023-03-28T05:52:30.651Z,50.96
2023-03-28T05:54:58.685Z,50.92
2023-03-28T05:57:26.297Z,51.18
2023-03-28T05:59:54.395Z,51.28
2023-03-28T06:02:24.357Z,50.67
2023-03-28T06:04:57.845Z,50.59
2023-03-28T06:07:39.394Z,50.76
2023-03-28T06:10:13.469Z,50.48
2023-03-28T06:12:45.152Z,50.36
2023-03-28T06:15:13.046Z,50.80
2023-03-28T06:17:44.661Z,50.34
2023-03-28T06:20:12.255Z,50.48
2023-03-28T06:22:40.174Z,50.34
2023-03-28T06:25:10.941Z,50.84
2023-03-28T06:27:38.825Z,50.30
2023-03-28T06:30:07.548Z,50.02
2023-03-28T06:32:43.335Z,50.85
2023-03-28T06:35:13.313Z,49.81
2023-03-28T06:37:40.803Z,50.50
2023-03-28T06:40:09.749Z,50.36
2023-03-28T06:42:37.385Z,50.40
2023-03-28T06:45:34.409Z,50.31
2023-03-28T06:48:09.064Z,50.08
2023-03-28T06:51:06.366Z,50.15
2023-03-28T06:53:36.084Z,49.63
2023-03-28T06:56:04.521Z,49.99
2023-03-28T06:58:32.186Z,49.71
2023-03-28T07:01:06.985Z,50.38
2023-03-28T07:03:37.456Z,49.74
2023-03-28T07:06:08.338Z,49.28
2023-03-28T07:08:36.823Z,49.72
2023-03-28T07:11:05.326Z,49.77
2023-03-28T07:13:33.492Z,49.25
2023-03-28T07:16:11.496Z,49.72
2023-03-28T07:18:39.600Z,49.99
2023-03-28T07:21:13.950Z,49.30
2023-03-28T07:23:44.520Z,49.29
2023-03-28T07:26:15.941Z,49.20
2023-03-28T07:28:43.485Z,48.78
2023-03-28T07:31:12.099Z,49.52
2023-03-28T07:33:41.168Z,49.02
2023-03-28T07:36:19.361Z,48.34
2023-03-28T07:38:51.067Z,48.62
2023-03-28T07:41:22.432Z,48.77
2023-03-28T07:43:50.217Z,48.49
2023-03-28T07:46:18.073Z,48.69
2023-03-28T07:48:46.375Z,48.40
2023-03-28T07:51:15.215Z,48.45
2023-03-28T07:53:42.772Z,48.02
2023-03-28T07:56:11.740Z,48.42
2023-03-28T07:58:55.252Z,48.08
2023-03-28T08:01:22.922Z,48.39
2023-03-28T08:03:55.862Z,48.33
2023-03-28T08:06:34.060Z,47.87
2023-03-28T08:09:02.818Z,47.95
2023-03-28T08:11:35.916Z,48.13
2023-03-28T08:14:05.914Z,47.96
2023-03-28T08:16:33.828Z,48.06
2023-03-28T08:19:10.704Z,47.85
2023-03-28T08:21:49.316Z,48.35
2023-03-28T08:24:25.285Z,48.01
2023-03-28T08:27:03.177Z,48.26
2023-03-28T08:29:31.365Z,48.43
2023-03-28T08:31:59.044Z,47.83
2023-03-28T08:34:27.083Z,48.33
2023-03-28T08:36:59.844Z,48.11
2023-03-28T08:39:29.069Z,48.11
2023-03-28T08:42:23.928Z,47.99
2023-03-28T08:45:26.890Z,47.23
2023-03-28T08:48:19.141Z,47.23
2023-03-28T08:51:05.936Z,46.73
2023-03-28T08:53:43.928Z,46.74
2023-03-28T08:56:16.255Z,47.02
2023-03-28T08:59:07.382Z,46.42
2023-03-28T09:01:35.769Z,45.61
2023-03-28T09:04:04.347Z,45.80
2023-03-28T09:06:40.818Z,44.98
2023-03-28T09:09:50.741Z,45.12
2023-03-28T09:13:06.033Z,45.39
2023-03-28T09:15:51.534Z,44.48
2023-03-28T09:18:47.100Z,44.06
2023-03-28T09:21:52.838Z,43.87
2023-03-28T09:25:14.517Z,43.37
2023-03-28T09:28:38.555Z,43.57
2023-03-28T09:31:09.813Z,43.34
2023-03-28T09:33:42.884Z,41.32
2023-03-28T09:36:31.594Z,40.89
2023-03-28T09:39:19.040Z,41.75
2023-03-28T09:41:53.496Z,42.49
2023-03-28T09:45:07.997Z,42.58
2023-03-28T09:47:54.085Z,42.21
2023-03-28T09:50:26.332Z,41.80
2023-03-28T09:52:58.869Z,42.25
2023-03-28T09:55:30.799Z,40.92
2023-03-28T09:58:14.732Z,39.36
2023-03-28T10:01:24.222Z,39.30
2023-03-28T10:04:15.953Z,40.27
2023-03-28T10:07:11.263Z,40.08
2023-03-28T10:09:54.342Z,40.13
2023-03-28T10:12:35.278Z,39.76
2023-03-28T10:15:03.409Z,39.33
2023-03-28T10:17:51.032Z,40.06
2023-03-28T10:20:24.845Z,39.98
2023-03-28T10:22:57.222Z,40.19
2023-03-28T10:25:45.311Z,40.17
2023-03-28T10:28:28.995Z,40.24
2023-03-28T10:31:01.455Z,40.06
2023-03-28T10:33:42.817Z,39.83
2023-03-28T10:36:42.899Z,39.77
2023-03-28T10:39:24.807Z,39.91
2023-03-28T10:42:11.815Z,39.58
2023-03-28T10:45:02.735Z,38.82
2023-03-28T10:47:34.513Z,39.27
2023-03-28T10:50:19.901Z,39.64
2023-03-28T10:53:18.470Z,38.79
2023-03-28T10:56:34.361Z,38.79
2023-03-28T10:59:25.417Z,37.72
2023-03-28T11:02:31.799Z,38.37
2023-03-28T11:05:52.100Z,39.34
2023-03-28T11:08:44.868Z,39.43
2023-03-28T11:11:54.109Z,39.64
2023-03-28T11:14:49.999Z,38.17
2023-03-28T11:17:55.864Z,38.43
2023-03-28T11:20:38.906Z,37.85
2023-03-28T11:23:50.389Z,38.26
2023-03-28T11:27:22.430Z,38.07
2023-03-28T11:30:24.045Z,37.37
2023-03-28T11:33:29.158Z,37.23
2023-03-28T11:36:14.523Z,36.71
2023-03-28T11:38:49.499Z,36.83
2023-03-28T11:41:26.968Z,36.95
2023-03-28T11:44:27.746Z,37.54
2023-03-28T11:47:04.512Z,36.56
2023-03-28T11:49:50.581Z,37.21
2023-03-28T11:53:01.845Z,37.68
2023-03-28T11:55:46.499Z,36.97
2023-03-28T11:58:29.711Z,36.70
2023-03-28T12:00:57.143Z,36.65
2023-03-28T12:04:07.669Z,37.21
2023-03-28T12:06:52.244Z,35.97
2023-03-28T12:09:33.291Z,36.88
2023-03-28T12:12:11.753Z,36.84
2023-03-28T12:15:05.303Z,36.26
2023-03-28T12:17:56.737Z,36.51
2023-03-28T12:20:32.965Z,36.68
2023-03-28T12:23:11.722Z,37.00
2023-03-28T12:26:05.186Z,36.84
2023-03-28T12:28:49.596Z,35.20
2023-03-28T12:31:31.422Z,36.34
2023-03-28T12:34:17.584Z,36.27
2023-03-28T12:37:21.460Z,35.16
2023-03-28T12:40:23.964Z,35.59
2023-03-28T12:42:57.827Z,35.75
2023-03-28T12:45:31.472Z,35.84
2023-03-28T12:48:06.467Z,35.38
2023-03-28T12:50:55.692Z,34.76
2023-03-28T12:53:24.257Z,35.00
2023-03-28T12:55:51.981Z,34.92
2023-03-28T12:58:29.085Z,35.27
2023-03-28T13:01:13.426Z,35.47
2023-03-28T13:04:14.059Z,35.55
2023-03-28T13:07:10.305Z,36.04
2023-03-28T13:10:14.581Z,35.13
2023-03-28T13:13:00.283Z,35.52
2023-03-28T13:15:31.012Z,35.55
2023-03-28T13:18:17.111Z,35.12
2023-03-28T13:20:45.972Z,35.10
2023-03-28T13:23:15.291Z,35.30
2023-03-28T13:25:44.058Z,34.78
2023-03-28T13:28:11.385Z,35.03
2023-03-28T13:30:43.366Z,33.93
2023-03-28T13:33:28.769Z,33.45
2023-03-28T13:35:59.140Z,34.38
2023-03-28T13:38:26.935Z,33.82
2023-03-28T13:40:57.050Z,34.61
2023-03-28T13:43:33.474Z,33.99
2023-03-28T13:46:06.680Z,34.50
2023-03-28T13:48:52.603Z,33.74
2023-03-28T13:51:30.244Z,32.69
2023-03-28T13:53:57.618Z,33.27
2023-03-28T13:56:31.388Z,33.37
2023-03-28T13:58:59.038Z,33.66
2023-03-28T14:01:34.494Z,33.32
2023-03-28T14:04:01.944Z,32.76
2023-03-28T14:06:30.465Z,33.11
2023-03-28T14:09:02.440Z,32.84
2023-03-28T14:11:35.783Z,32.75
2023-03-28T14:14:25.273Z,32.83
2023-03-28T14:16:53.409Z,32.49
2023-03-28T14:19:23.721Z,32.15
2023-03-28T14:21:52.566Z,31.35
2023-03-28T14:24:26.532Z,31.32
2023-03-28T14:27:06.551Z,31.04
2023-03-28T14:29:33.917Z,31.38
2023-03-28T14:32:06.228Z,31.02
2023-03-28T14:34:35.232Z,30.69
2023-03-28T14:37:06.244Z,30.95
2023-03-28T14:39:35.673Z,31.05
2023-03-28T14:42:05.387Z,30.74
2023-03-28T14:44:37.357Z,29.92
2023-03-28T14:47:05.233Z,30.05
2023-03-28T14:49:32.788Z,29.35
2023-03-28T14:52:03.483Z,29.61
2023-03-28T14:54:38.742Z,28.47
2023-03-28T14:57:06.901Z,28.34
2023-03-28T14:59:41.333Z,28.05
2023-03-28T15:02:21.232Z,29.04
2023-03-28T15:04:49.565Z,28.67
2023-03-28T15:07:26.458Z,27.76
2023-03-28T15:10:07.160Z,28.02
2023-03-28T15:12:55.595Z,28.07
2023-03-28T15:15:28.410Z,27.34
2023-03-28T15:17:58.392Z,27.72
2023-03-28T15:20:31.838Z,28.05
2023-03-28T15:23:02.187Z,26.88
2023-03-28T15:25:31.377Z,27.76
2023-03-28T15:28:01.559Z,27.78
2023-03-28T15:30:32.734Z,27.65
2023-03-28T15:33:05.799Z,27.62
2023-03-28T15:35:39.843Z,27.83
2023-03-28T15:38:14.932Z,26.78
2023-03-28T15:40:44.492Z,27.45
2023-03-28T15:43:27.149Z,27.27
2023-03-28T15:45:58.754Z,26.30
2023-03-28T15:48:27.071Z,26.96
2023-03-28T15:50:54.759Z,27.60
2023-03-28T15:53:26.585Z,27.37
2023-03-28T15:55:54.485Z,27.61
2023-03-28T15:58:23.231Z,26.74
2023-03-28T16:00:53.032Z,26.98
2023-03-28T16:03:20.457Z,26.46
2023-03-28T16:05:52.103Z,25.91
2023-03-28T16:08:23.719Z,26.04
2023-03-28T16:10:51.119Z,25.31
2023-03-28T16:13:47.738Z,25.97
2023-03-28T16:16:45.303Z,25.63
2023-03-28T16:19:26.489Z,25.58
2023-03-28T16:21:54.281Z,25.49
2023-03-28T16:24:21.703Z,25.66
2023-03-28T16:26:49.604Z,25.98
2023-03-28T16:29:17.013Z,26.52
2023-03-28T16:31:44.556Z,26.39
2023-03-28T16:34:12.025Z,26.37
2023-03-28T16:36:39.453Z,27.05
2023-03-28T16:39:07.922Z,27.04
2023-03-28T16:41:35.711Z,27.10
2023-03-28T16:44:04.151Z,27.35
2023-03-28T16:46:31.861Z,27.33
2023-03-28T16:48:59.968Z,27.45
2023-03-28T16:51:27.345Z,27.40
2023-03-28T16:53:54.680Z,27.30
2023-03-28T16:56:25.992Z,27.58
2023-03-28T16:58:53.833Z,27.71
2023-03-28T17:01:21.549Z,27.69
2023-03-28T17:03:49.533Z,28.09
2023-03-28T17:06:17.032Z,28.10
2023-03-28T17:08:44.655Z,28.16
2023-03-28T17:11:12.964Z,28.28
2023-03-28T17:13:42.001Z,28.52
2023-03-28T17:16:10.232Z,28.58
2023-03-28T17:18:37.687Z,28.92
2023-03-28T17:21:10.700Z,29.09
2023-03-28T17:23:39.190Z,29.18
2023-03-28T17:26:08.296Z,29.27
2023-03-28T17:28:39.073Z,29.40
2023-03-28T17:31:08.356Z,29.56
2023-03-28T17:33:36.175Z,29.68
2023-03-28T17:36:21.910Z,29.49
2023-03-28T17:38:51.383Z,29.79
2023-03-28T17:41:19.684Z,29.94
2023-03-28T17:43:47.304Z,29.81
2023-03-28T17:46:15.005Z,29.75
2023-03-28T17:48:42.885Z,29.80
2023-03-28T17:51:11.233Z,30.21
2023-03-28T17:53:39.471Z,30.26
2023-03-28T17:56:07.147Z,30.31
2023-03-28T17:58:34.679Z,29.90
2023-03-28T18:01:02.070Z,30.09
2023-03-28T18:03:29.506Z,30.08
2023-03-28T18:06:09.803Z,30.15
2023-03-28T18:08:37.183Z,30.37
2023-03-28T18:11:07.333Z,30.31
2023-03-28T18:13:36.013Z,30.03
2023-03-28T18:16:05.103Z,30.25
2023-03-28T18:18:33.211Z,29.98
2023-03-28T18:21:00.940Z,30.21
2023-03-28T18:23:28.303Z,30.17
2023-03-28T18:25:55.630Z,30.23
2023-03-28T18:28:26.165Z,30.32
2023-03-28T18:30:54.088Z,30.23
2023-03-28T18:33:22.170Z,30.61
2023-03-28T18:35:49.544Z,30.18
2023-03-28T18:38:17.719Z,30.43
2023-03-28T18:40:45.394Z,30.53
2023-03-28T18:43:12.720Z,30.69
2023-03-28T18:45:40.286Z,30.93
2023-03-28T18:48:08.910Z,30.78
2023-03-28T18:50:38.681Z,30.79
2023-03-28T18:53:06.017Z,31.10
2023-03-28T18:55:33.393Z,30.84
2023-03-28T18:58:02.272Z,30.96
2023-03-28T19:00:29.908Z,31.39
2023-03-28T19:02:57.371Z,31.16
2023-03-28T19:05:24.937Z,31.50
2023-03-28T19:07:52.252Z,31.60
2023-03-28T19:10:19.626Z,31.50
2023-03-28T19:12:47.135Z,31.40
2023-03-28T19:15:14.791Z,31.42
2023-03-28T19:17:42.783Z,31.29
2023-03-28T19:20:13.572Z,31.54
2023-03-28T19:22:41.479Z,31.63
2023-03-28T19:25:09.595Z,31.77
2023-03-28T19:27:37.701Z,31.37
2023-03-28T19:30:06.418Z,31.81
2023-03-28T19:32:33.919Z,31.77
2023-03-28T19:35:01.369Z,31.83
2023-03-28T19:37:28.855Z,31.69
2023-03-28T19:39:59.008Z,32.13
2023-03-28T19:42:26.386Z,32.12
2023-03-28T19:44:53.749Z,32.22
2023-03-28T19:47:21.117Z,32.15
2023-03-28T19:49:49.203Z,32.34
2023-03-28T19:52:16.598Z,32.64
2023-03-28T19:54:43.973Z,32.14
2023-03-28T19:57:11.367Z,32.45
2023-03-28T19:59:38.762Z,32.44
2023-03-28T20:02:06.252Z,32.56
2023-03-28T20:04:33.675Z,32.46
2023-03-28T20:07:01.312Z,32.73
2023-03-28T20:09:28.623Z,32.48
2023-03-28T20:11:56.200Z,32.38
2023-03-28T20:14:23.591Z,32.79
2023-03-28T20:16:51.002Z,33.11
2023-03-28T20:19:18.374Z,32.75
2023-03-28T20:21:46.421Z,32.84
2023-03-28T20:24:14.291Z,32.80
2023-03-28T20:26:41.786Z,33.19
2023-03-28T20:29:13.639Z,32.72
2023-03-28T20:31:41.054Z,32.60
2023-03-28T20:34:08.477Z,32.57
2023-03-28T20:36:36.296Z,32.61
2023-03-28T20:39:04.726Z,32.46
2023-03-28T20:41:32.041Z,32.66
2023-03-28T20:44:03.450Z,32.38
2023-03-28T20:46:36.708Z,32.59
2023-03-28T20:49:06.338Z,32.24
2023-03-28T20:51:38.289Z,32.44
2023-03-28T20:54:06.524Z,32.68
2023-03-28T20:56:33.863Z,32.95
2023-03-28T20:59:01.259Z,32.91
2023-03-28T21:01:29.747Z,32.98
2023-03-28T21:03:59.714Z,33.60
2023-03-28T21:06:29.724Z,33.51
2023-03-28T21:09:01.702Z,33.63
2023-03-28T21:11:31.282Z,33.49
2023-03-28T21:13:59.769Z,33.33
2023-03-28T21:16:28.683Z,33.60
2023-03-28T21:18:56.431Z,33.42
2023-03-28T21:21:24.190Z,33.41
2023-03-28T21:23:53.105Z,33.28
2023-03-28T21:26:22.646Z,33.29
2023-03-28T21:28:52.378Z,33.72
2023-03-28T21:31:25.467Z,33.48
2023-03-28T21:33:56.703Z,33.84
2023-03-28T21:36:25.465Z,33.63
2023-03-28T21:38:53.084Z,33.97
2023-03-28T21:41:20.657Z,33.65
2023-03-28T21:43:48.124Z,33.76
2023-03-28T21:46:18.234Z,33.96
2023-03-28T21:48:47.745Z,34.23
2023-03-28T21:51:16.945Z,34.32
2023-03-28T21:53:45.721Z,34.68
2023-03-28T21:56:14.878Z,34.21
2023-03-28T21:58:42.490Z,34.25
2023-03-28T22:01:13.319Z,34.28
2023-03-28T22:03:40.873Z,34.54
2023-03-28T22:06:08.533Z,34.50
2023-03-28T22:08:35.979Z,34.29
2023-03-28T22:11:10.796Z,35.06
2023-03-28T22:13:38.772Z,34.70
2023-03-28T22:16:09.214Z,34.76
2023-03-28T22:18:36.725Z,35.22
2023-03-28T22:21:04.957Z,35.04
2023-03-28T22:23:32.357Z,35.05
2023-03-28T22:25:59.791Z,35.14
2023-03-28T22:28:27.124Z,35.08
2023-03-28T22:30:56.172Z,34.79
2023-03-28T22:33:25.078Z,34.74
2023-03-28T22:35:53.134Z,34.67
2023-03-28T22:38:20.601Z,34.75
2023-03-28T22:40:47.996Z,34.82
2023-03-28T22:43:15.998Z,35.18
2023-03-28T22:45:43.428Z,35.15
2023-03-28T22:48:14.237Z,35.87
2023-03-28T22:50:44.115Z,37.47
2023-03-28T22:53:12.350Z,37.87
2023-03-28T22:55:41.639Z,37.86
2023-03-28T22:58:09.003Z,39.13
2023-03-28T23:00:36.347Z,38.75
2023-03-28T23:03:04.036Z,39.08
2023-03-28T23:05:31.878Z,38.62
2023-03-28T23:08:00.104Z,39.21
2023-03-28T23:10:27.695Z,39.88
2023-03-28T23:12:55.114Z,40.11
2023-03-28T23:15:22.622Z,39.98
2023-03-28T23:17:50.297Z,41.42
2023-03-28T23:20:19.077Z,40.98
2023-03-28T23:22:48.530Z,41.05
2023-03-28T23:25:18.419Z,41.43
2023-03-28T23:27:46.617Z,41.82
2023-03-28T23:30:14.929Z,41.65
2023-03-28T23:32:42.433Z,41.97
2023-03-28T23:35:10.511Z,41.71
2023-03-28T23:37:38.309Z,41.66
2023-03-28T23:40:11.488Z,41.34
2023-03-28T23:42:38.856Z,41.62
2023-03-28T23:45:06.783Z,42.02
2023-03-28T23:47:34.173Z,42.27
2023-03-28T23:50:01.555Z,42.13
2023-03-28T23:52:28.963Z,42.27
2023-03-28T23:54:56.565Z,41.91
2023-03-28T23:57:25.161Z,42.05
2023-03-28T23:59:52.759Z,42.63
